sensor_id;sensor_type;location;lat;lon;timestamp;temperature;humidity
64652;HTU21D;51062;45.120;37.660;2023-10-31T00:01:55;9.66;73.70
64652;HTU21D;51062;45.120;37.660;2023-10-31T00:04:21;9.62;73.71
64652;HTU21D;51062;45.120;37.660;2023-10-31T00:06:47;9.60;73.70
64652;HTU21D;51062;45.120;37.660;2023-10-31T00:09:13;9.57;73.69
64652;HTU21D;51062;45.120;37.660;2023-10-31T00:11:41;9.56;73.68
64652;HTU21D;51062;45.120;37.660;2023-10-31T00:14:07;9.54;73.70
64652;HTU21D;51062;45.120;37.660;2023-10-31T00:16:34;9.52;73.71
64652;HTU21D;51062;45.120;37.660;2023-10-31T00:19:00;9.51;73.72
64652;HTU21D;51062;45.120;37.660;2023-10-31T00:21:26;9.50;73.70
64652;HTU21D;51062;45.120;37.660;2023-10-31T00:23:52;9.49;73.70
64652;HTU21D;51062;45.120;37.660;2023-10-31T00:26:18;9.47;73.76
64652;HTU21D;51062;45.120;37.660;2023-10-31T00:28:50;9.45;73.77
64652;HTU21D;51062;45.120;37.660;2023-10-31T00:31:17;9.44;73.83
64652;HTU21D;51062;45.120;37.660;2023-10-31T00:33:43;9.41;73.88
64652;HTU21D;51062;45.120;37.660;2023-10-31T00:36:09;9.41;73.90
64652;HTU21D;51062;45.120;37.660;2023-10-31T00:38:35;9.39;73.91
64652;HTU21D;51062;45.120;37.660;2023-10-31T00:41:01;9.39;73.96
64652;HTU21D;51062;45.120;37.660;2023-10-31T00:43:27;9.40;73.97
64652;HTU21D;51062;45.120;37.660;2023-10-31T00:45:53;9.39;73.99
64652;HTU21D;51062;45.120;37.660;2023-10-31T00:48:19;9.37;74.02
64652;HTU21D;51062;45.120;37.660;2023-10-31T00:50:46;9.37;74.04
64652;HTU21D;51062;45.120;37.660;2023-10-31T00:53:12;9.36;74.02
64652;HTU21D;51062;45.120;37.660;2023-10-31T00:55:40;9.35;74.01
64652;HTU21D;51062;45.120;37.660;2023-10-31T00:58:07;9.33;73.98
64652;HTU21D;51062;45.120;37.660;2023-10-31T01:00:33;9.33;73.99
64652;HTU21D;51062;45.120;37.660;2023-10-31T01:03:00;9.32;74.00
64652;HTU21D;51062;45.120;37.660;2023-10-31T01:05:26;9.32;73.97
64652;HTU21D;51062;45.120;37.660;2023-10-31T01:07:55;9.29;73.99
64652;HTU21D;51062;45.120;37.660;2023-10-31T01:10:21;9.22;74.02
64652;HTU21D;51062;45.120;37.660;2023-10-31T01:12:48;9.18;74.12
64652;HTU21D;51062;45.120;37.660;2023-10-31T01:15:14;9.10;74.18
64652;HTU21D;51062;45.120;37.660;2023-10-31T01:17:40;9.06;74.28
64652;HTU21D;51062;45.120;37.660;2023-10-31T01:20:06;9.01;74.32
64652;HTU21D;51062;45.120;37.660;2023-10-31T01:22:33;8.97;74.38
64652;HTU21D;51062;45.120;37.660;2023-10-31T01:24:59;8.94;74.38
64652;HTU21D;51062;45.120;37.660;2023-10-31T01:27:25;8.92;74.34
64652;HTU21D;51062;45.120;37.660;2023-10-31T01:29:51;8.89;74.37
64652;HTU21D;51062;45.120;37.660;2023-10-31T01:32:17;8.85;74.44
64652;HTU21D;51062;45.120;37.660;2023-10-31T01:34:44;8.83;74.45
64652;HTU21D;51062;45.120;37.660;2023-10-31T01:37:10;8.81;74.44
64652;HTU21D;51062;45.120;37.660;2023-10-31T01:39:36;8.80;74.45
64652;HTU21D;51062;45.120;37.660;2023-10-31T01:42:03;8.78;74.46
64652;HTU21D;51062;45.120;37.660;2023-10-31T01:44:29;8.77;74.46
64652;HTU21D;51062;45.120;37.660;2023-10-31T01:46:55;8.76;74.41
64652;HTU21D;51062;45.120;37.660;2023-10-31T01:49:21;8.75;74.38
64652;HTU21D;51062;45.120;37.660;2023-10-31T01:51:48;8.72;74.39
64652;HTU21D;51062;45.120;37.660;2023-10-31T01:54:14;8.71;74.38
64652;HTU21D;51062;45.120;37.660;2023-10-31T01:56:42;8.70;74.40
64652;HTU21D;51062;45.120;37.660;2023-10-31T01:59:09;8.67;74.39
64652;HTU21D;51062;45.120;37.660;2023-10-31T02:01:39;8.65;74.44
64652;HTU21D;51062;45.120;37.660;2023-10-31T02:04:08;8.62;74.45
64652;HTU21D;51062;45.120;37.660;2023-10-31T02:06:34;8.59;74.51
64652;HTU21D;51062;45.120;37.660;2023-10-31T02:09:00;8.58;74.54
64652;HTU21D;51062;45.120;37.660;2023-10-31T02:11:26;8.58;74.57
64652;HTU21D;51062;45.120;37.660;2023-10-31T02:13:52;8.57;74.56
64652;HTU21D;51062;45.120;37.660;2023-10-31T02:16:18;8.60;74.51
64652;HTU21D;51062;45.120;37.660;2023-10-31T02:18:45;8.60;74.43
64652;HTU21D;51062;45.120;37.660;2023-10-31T02:21:11;8.60;74.42
64652;HTU21D;51062;45.120;37.660;2023-10-31T02:23:37;8.58;74.40
64652;HTU21D;51062;45.120;37.660;2023-10-31T02:26:03;8.55;74.42
64652;HTU21D;51062;45.120;37.660;2023-10-31T02:28:30;8.55;74.42
64652;HTU21D;51062;45.120;37.660;2023-10-31T02:30:57;8.52;74.41
64652;HTU21D;51062;45.120;37.660;2023-10-31T02:33:23;8.50;74.44
64652;HTU21D;51062;45.120;37.660;2023-10-31T02:35:49;8.49;74.46
64652;HTU21D;51062;45.120;37.660;2023-10-31T02:38:15;8.48;74.47
64652;HTU21D;51062;45.120;37.660;2023-10-31T02:40:41;8.48;74.44
64652;HTU21D;51062;45.120;37.660;2023-10-31T02:43:08;8.46;74.43
64652;HTU21D;51062;45.120;37.660;2023-10-31T02:45:34;8.43;74.44
64652;HTU21D;51062;45.120;37.660;2023-10-31T02:48:00;8.41;74.45
64652;HTU21D;51062;45.120;37.660;2023-10-31T02:50:26;8.38;74.49
64652;HTU21D;51062;45.120;37.660;2023-10-31T02:52:53;8.34;74.47
64652;HTU21D;51062;45.120;37.660;2023-10-31T02:55:19;8.34;74.51
64652;HTU21D;51062;45.120;37.660;2023-10-31T02:57:45;8.30;74.50
64652;HTU21D;51062;45.120;37.660;2023-10-31T03:00:11;8.28;74.52
64652;HTU21D;51062;45.120;37.660;2023-10-31T03:02:38;8.22;74.57
64652;HTU21D;51062;45.120;37.660;2023-10-31T03:05:04;8.19;74.58
64652;HTU21D;51062;45.120;37.660;2023-10-31T03:07:30;8.14;74.71
64652;HTU21D;51062;45.120;37.660;2023-10-31T03:09:56;8.11;74.82
64652;HTU21D;51062;45.120;37.660;2023-10-31T03:12:22;8.07;74.81
64652;HTU21D;51062;45.120;37.660;2023-10-31T03:14:49;8.04;74.74
64652;HTU21D;51062;45.120;37.660;2023-10-31T03:17:16;8.00;74.72
64652;HTU21D;51062;45.120;37.660;2023-10-31T03:19:42;7.98;74.68
64652;HTU21D;51062;45.120;37.660;2023-10-31T03:22:08;7.93;74.73
64652;HTU21D;51062;45.120;37.660;2023-10-31T03:24:34;7.90;74.82
64652;HTU21D;51062;45.120;37.660;2023-10-31T03:27:00;7.86;74.87
64652;HTU21D;51062;45.120;37.660;2023-10-31T03:29:26;7.82;74.93
64652;HTU21D;51062;45.120;37.660;2023-10-31T03:31:52;7.76;75.01
64652;HTU21D;51062;45.120;37.660;2023-10-31T03:34:18;7.73;74.99
64652;HTU21D;51062;45.120;37.660;2023-10-31T03:36:44;7.68;75.00
64652;HTU21D;51062;45.120;37.660;2023-10-31T03:39:10;7.61;75.00
64652;HTU21D;51062;45.120;37.660;2023-10-31T03:41:36;7.56;75.07
64652;HTU21D;51062;45.120;37.660;2023-10-31T03:44:02;7.53;75.16
64652;HTU21D;51062;45.120;37.660;2023-10-31T03:46:28;7.52;75.15
64652;HTU21D;51062;45.120;37.660;2023-10-31T03:48:55;7.48;75.10
64652;HTU21D;51062;45.120;37.660;2023-10-31T03:51:21;7.47;75.20
64652;HTU21D;51062;45.120;37.660;2023-10-31T03:53:47;7.48;75.22
64652;HTU21D;51062;45.120;37.660;2023-10-31T03:56:13;7.52;75.21
64652;HTU21D;51062;45.120;37.660;2023-10-31T03:58:46;7.54;75.17
64652;HTU21D;51062;45.120;37.660;2023-10-31T04:01:12;7.58;75.04
64652;HTU21D;51062;45.120;37.660;2023-10-31T04:03:38;7.60;75.03
64652;HTU21D;51062;45.120;37.660;2023-10-31T04:06:05;7.61;75.06
64652;HTU21D;51062;45.120;37.660;2023-10-31T04:08:31;7.65;75.14
64652;HTU21D;51062;45.120;37.660;2023-10-31T04:10:57;7.71;75.11
64652;HTU21D;51062;45.120;37.660;2023-10-31T04:13:23;7.78;75.05
64652;HTU21D;51062;45.120;37.660;2023-10-31T04:15:49;7.84;75.03
64652;HTU21D;51062;45.120;37.660;2023-10-31T04:18:15;7.89;75.08
64652;HTU21D;51062;45.120;37.660;2023-10-31T04:20:42;8.12;75.12
64652;HTU21D;51062;45.120;37.660;2023-10-31T04:23:08;8.55;74.77
64652;HTU21D;51062;45.120;37.660;2023-10-31T04:25:35;8.97;74.28
64652;HTU21D;51062;45.120;37.660;2023-10-31T04:28:01;9.21;73.63
64652;HTU21D;51062;45.120;37.660;2023-10-31T04:30:28;9.27;73.61
64652;HTU21D;51062;45.120;37.660;2023-10-31T04:32:54;9.51;74.00
64652;HTU21D;51062;45.120;37.660;2023-10-31T04:35:20;10.09;73.77
64652;HTU21D;51062;45.120;37.660;2023-10-31T04:37:46;10.79;72.51
64652;HTU21D;51062;45.120;37.660;2023-10-31T04:40:12;11.48;71.90
64652;HTU21D;51062;45.120;37.660;2023-10-31T04:42:39;12.26;71.63
64652;HTU21D;51062;45.120;37.660;2023-10-31T04:45:07;13.03;71.14
64652;HTU21D;51062;45.120;37.660;2023-10-31T04:47:33;13.74;70.72
64652;HTU21D;51062;45.120;37.660;2023-10-31T04:49:59;14.34;70.37
64652;HTU21D;51062;45.120;37.660;2023-10-31T04:52:25;14.93;70.10
64652;HTU21D;51062;45.120;37.660;2023-10-31T04:54:51;15.48;69.68
64652;HTU21D;51062;45.120;37.660;2023-10-31T04:57:18;15.98;69.29
64652;HTU21D;51062;45.120;37.660;2023-10-31T04:59:44;16.48;68.93
64652;HTU21D;51062;45.120;37.660;2023-10-31T05:02:10;16.85;68.31
64652;HTU21D;51062;45.120;37.660;2023-10-31T05:04:39;16.81;67.97
64652;HTU21D;51062;45.120;37.660;2023-10-31T05:07:06;16.65;68.30
64652;HTU21D;51062;45.120;37.660;2023-10-31T05:09:32;16.79;68.31
64652;HTU21D;51062;45.120;37.660;2023-10-31T05:11:58;17.14;68.10
64652;HTU21D;51062;45.120;37.660;2023-10-31T05:14:24;17.63;67.52
64652;HTU21D;51062;45.120;37.660;2023-10-31T05:16:50;18.15;66.91
64652;HTU21D;51062;45.120;37.660;2023-10-31T05:19:16;18.66;66.23
64652;HTU21D;51062;45.120;37.660;2023-10-31T05:21:42;19.03;65.65
64652;HTU21D;51062;45.120;37.660;2023-10-31T05:24:08;19.36;65.26
64652;HTU21D;51062;45.120;37.660;2023-10-31T05:26:34;19.85;64.18
64652;HTU21D;51062;45.120;37.660;2023-10-31T05:29:00;20.31;63.05
64652;HTU21D;51062;45.120;37.660;2023-10-31T05:31:26;20.72;61.76
64652;HTU21D;51062;45.120;37.660;2023-10-31T05:33:52;21.03;60.96
64652;HTU21D;51062;45.120;37.660;2023-10-31T05:36:19;21.24;60.63
64652;HTU21D;51062;45.120;37.660;2023-10-31T05:38:46;21.36;60.52
64652;HTU21D;51062;45.120;37.660;2023-10-31T05:41:13;21.50;60.31
64652;HTU21D;51062;45.120;37.660;2023-10-31T05:43:40;21.49;60.35
64652;HTU21D;51062;45.120;37.660;2023-10-31T05:46:06;21.34;60.59
64652;HTU21D;51062;45.120;37.660;2023-10-31T05:48:32;21.27;60.88
64652;HTU21D;51062;45.120;37.660;2023-10-31T05:50:58;21.35;60.94
64652;HTU21D;51062;45.120;37.660;2023-10-31T05:53:24;21.49;60.50
64652;HTU21D;51062;45.120;37.660;2023-10-31T05:55:50;21.67;60.02
64652;HTU21D;51062;45.120;37.660;2023-10-31T05:58:16;21.96;59.28
64652;HTU21D;51062;45.120;37.660;2023-10-31T06:00:42;22.04;59.01
64652;HTU21D;51062;45.120;37.660;2023-10-31T06:03:08;22.06;59.04
64652;HTU21D;51062;45.120;37.660;2023-10-31T06:05:34;22.33;58.17
64652;HTU21D;51062;45.120;37.660;2023-10-31T06:08:00;22.50;57.65
64652;HTU21D;51062;45.120;37.660;2023-10-31T06:10:26;22.46;57.54
64652;HTU21D;51062;45.120;37.660;2023-10-31T06:12:53;22.28;58.09
64652;HTU21D;51062;45.120;37.660;2023-10-31T06:15:19;22.29;57.99
64652;HTU21D;51062;45.120;37.660;2023-10-31T06:17:45;22.32;57.90
64652;HTU21D;51062;45.120;37.660;2023-10-31T06:20:11;22.52;57.65
64652;HTU21D;51062;45.120;37.660;2023-10-31T06:22:37;22.75;56.99
64652;HTU21D;51062;45.120;37.660;2023-10-31T06:25:03;22.90;56.77
64652;HTU21D;51062;45.120;37.660;2023-10-31T06:27:29;23.02;56.68
64652;HTU21D;51062;45.120;37.660;2023-10-31T06:29:55;23.32;56.24
64652;HTU21D;51062;45.120;37.660;2023-10-31T06:32:21;23.68;55.56
64652;HTU21D;51062;45.120;37.660;2023-10-31T06:34:47;23.80;55.10
64652;HTU21D;51062;45.120;37.660;2023-10-31T06:37:13;23.82;55.16
64652;HTU21D;51062;45.120;37.660;2023-10-31T06:39:39;23.97;54.92
64652;HTU21D;51062;45.120;37.660;2023-10-31T06:42:06;24.00;54.75
64652;HTU21D;51062;45.120;37.660;2023-10-31T06:44:31;23.97;54.69
64652;HTU21D;51062;45.120;37.660;2023-10-31T06:46:57;23.97;54.59
64652;HTU21D;51062;45.120;37.660;2023-10-31T06:49:23;24.11;54.11
64652;HTU21D;51062;45.120;37.660;2023-10-31T06:51:49;24.05;54.04
64652;HTU21D;51062;45.120;37.660;2023-10-31T06:54:16;24.00;54.16
64652;HTU21D;51062;45.120;37.660;2023-10-31T06:56:41;23.91;54.12
64652;HTU21D;51062;45.120;37.660;2023-10-31T06:59:07;23.84;54.15
64652;HTU21D;51062;45.120;37.660;2023-10-31T07:01:34;23.61;54.36
64652;HTU21D;51062;45.120;37.660;2023-10-31T07:04:00;23.53;54.46
64652;HTU21D;51062;45.120;37.660;2023-10-31T07:06:26;23.45;54.39
64652;HTU21D;51062;45.120;37.660;2023-10-31T07:08:52;23.42;54.35
64652;HTU21D;51062;45.120;37.660;2023-10-31T07:11:18;23.44;54.19
64652;HTU21D;51062;45.120;37.660;2023-10-31T07:13:44;23.64;53.90
64652;HTU21D;51062;45.120;37.660;2023-10-31T07:16:10;23.79;53.35
64652;HTU21D;51062;45.120;37.660;2023-10-31T07:18:36;23.76;53.36
64652;HTU21D;51062;45.120;37.660;2023-10-31T07:21:03;23.92;53.25
64652;HTU21D;51062;45.120;37.660;2023-10-31T07:23:29;23.95;53.27
64652;HTU21D;51062;45.120;37.660;2023-10-31T07:25:55;23.98;53.32
64652;HTU21D;51062;45.120;37.660;2023-10-31T07:28:21;24.05;53.27
64652;HTU21D;51062;45.120;37.660;2023-10-31T07:30:48;24.05;53.17
64652;HTU21D;51062;45.120;37.660;2023-10-31T07:33:15;23.89;53.22
64652;HTU21D;51062;45.120;37.660;2023-10-31T07:35:41;23.73;53.36
64652;HTU21D;51062;45.120;37.660;2023-10-31T07:38:07;23.74;53.20
64652;HTU21D;51062;45.120;37.660;2023-10-31T07:40:33;23.70;53.05
64652;HTU21D;51062;45.120;37.660;2023-10-31T07:42:59;23.52;53.14
64652;HTU21D;51062;45.120;37.660;2023-10-31T07:45:25;23.37;53.36
64652;HTU21D;51062;45.120;37.660;2023-10-31T07:47:51;23.41;53.22
64652;HTU21D;51062;45.120;37.660;2023-10-31T07:50:17;23.38;53.13
64652;HTU21D;51062;45.120;37.660;2023-10-31T07:52:43;23.40;53.06
64652;HTU21D;51062;45.120;37.660;2023-10-31T07:55:12;23.39;52.96
64652;HTU21D;51062;45.120;37.660;2023-10-31T07:57:38;23.46;52.75
64652;HTU21D;51062;45.120;37.660;2023-10-31T08:00:04;23.37;52.77
64652;HTU21D;51062;45.120;37.660;2023-10-31T08:02:38;23.36;52.62
64652;HTU21D;51062;45.120;37.660;2023-10-31T08:05:04;23.23;52.50
64652;HTU21D;51062;45.120;37.660;2023-10-31T08:07:30;22.73;53.10
64652;HTU21D;51062;45.120;37.660;2023-10-31T08:09:57;21.88;54.41
64652;HTU21D;51062;45.120;37.660;2023-10-31T08:12:22;21.16;55.91
64652;HTU21D;51062;45.120;37.660;2023-10-31T08:14:49;20.62;56.83
64652;HTU21D;51062;45.120;37.660;2023-10-31T08:17:15;20.18;57.70
64652;HTU21D;51062;45.120;37.660;2023-10-31T08:19:41;19.89;58.24
64652;HTU21D;51062;45.120;37.660;2023-10-31T08:22:08;19.66;58.67
64652;HTU21D;51062;45.120;37.660;2023-10-31T08:24:34;19.54;58.93
64652;HTU21D;51062;45.120;37.660;2023-10-31T08:27:03;19.44;59.03
64652;HTU21D;51062;45.120;37.660;2023-10-31T08:29:29;19.38;59.20
64652;HTU21D;51062;45.120;37.660;2023-10-31T08:31:55;19.33;59.27
64652;HTU21D;51062;45.120;37.660;2023-10-31T08:34:21;19.30;59.31
64652;HTU21D;51062;45.120;37.660;2023-10-31T08:36:47;19.30;59.29
64652;HTU21D;51062;45.120;37.660;2023-10-31T08:39:13;19.30;59.35
64652;HTU21D;51062;45.120;37.660;2023-10-31T08:41:53;19.36;59.34
64652;HTU21D;51062;45.120;37.660;2023-10-31T08:44:19;19.38;59.25
64652;HTU21D;51062;45.120;37.660;2023-10-31T08:46:45;19.39;59.18
64652;HTU21D;51062;45.120;37.660;2023-10-31T08:49:12;19.40;59.18
64652;HTU21D;51062;45.120;37.660;2023-10-31T08:51:38;19.44;59.20
64652;HTU21D;51062;45.120;37.660;2023-10-31T08:54:05;19.47;59.20
64652;HTU21D;51062;45.120;37.660;2023-10-31T08:56:31;19.57;59.19
64652;HTU21D;51062;45.120;37.660;2023-10-31T08:58:57;19.61;59.11
64652;HTU21D;51062;45.120;37.660;2023-10-31T09:01:23;19.67;59.09
64652;HTU21D;51062;45.120;37.660;2023-10-31T09:03:49;19.74;59.07
64652;HTU21D;51062;45.120;37.660;2023-10-31T09:06:15;19.82;59.03
64652;HTU21D;51062;45.120;37.660;2023-10-31T09:08:41;19.89;58.85
64652;HTU21D;51062;45.120;37.660;2023-10-31T09:11:07;19.96;58.85
64652;HTU21D;51062;45.120;37.660;2023-10-31T09:13:33;20.02;58.71
64652;HTU21D;51062;45.120;37.660;2023-10-31T09:15:59;20.10;58.58
64652;HTU21D;51062;45.120;37.660;2023-10-31T09:18:26;20.17;58.48
64652;HTU21D;51062;45.120;37.660;2023-10-31T09:20:52;20.24;58.21
64652;HTU21D;51062;45.120;37.660;2023-10-31T09:23:18;20.30;57.99
64652;HTU21D;51062;45.120;37.660;2023-10-31T09:25:44;20.34;57.98
64652;HTU21D;51062;45.120;37.660;2023-10-31T09:28:11;20.40;57.96
64652;HTU21D;51062;45.120;37.660;2023-10-31T09:30:37;20.45;57.73
64652;HTU21D;51062;45.120;37.660;2023-10-31T09:33:03;20.49;57.67
64652;HTU21D;51062;45.120;37.660;2023-10-31T09:35:29;20.53;57.61
64652;HTU21D;51062;45.120;37.660;2023-10-31T09:37:55;20.58;57.58
64652;HTU21D;51062;45.120;37.660;2023-10-31T09:40:21;20.62;57.44
64652;HTU21D;51062;45.120;37.660;2023-10-31T09:42:48;20.64;57.35
64652;HTU21D;51062;45.120;37.660;2023-10-31T09:45:17;20.68;57.25
64652;HTU21D;51062;45.120;37.660;2023-10-31T09:47:43;20.71;57.15
64652;HTU21D;51062;45.120;37.660;2023-10-31T09:50:10;20.74;57.13
64652;HTU21D;51062;45.120;37.660;2023-10-31T09:52:37;20.79;57.03
64652;HTU21D;51062;45.120;37.660;2023-10-31T09:55:04;20.83;57.02
64652;HTU21D;51062;45.120;37.660;2023-10-31T09:57:31;20.86;56.79
64652;HTU21D;51062;45.120;37.660;2023-10-31T09:59:58;20.90;56.62
64652;HTU21D;51062;45.120;37.660;2023-10-31T10:02:24;20.91;56.64
64652;HTU21D;51062;45.120;37.660;2023-10-31T10:04:51;20.95;56.70
64652;HTU21D;51062;45.120;37.660;2023-10-31T10:07:18;20.96;56.54
64652;HTU21D;51062;45.120;37.660;2023-10-31T10:09:45;21.03;56.50
64652;HTU21D;51062;45.120;37.660;2023-10-31T10:12:13;21.06;56.46
64652;HTU21D;51062;45.120;37.660;2023-10-31T10:14:39;21.08;56.40
64652;HTU21D;51062;45.120;37.660;2023-10-31T10:17:22;21.15;56.29
64652;HTU21D;51062;45.120;37.660;2023-10-31T10:20:07;21.18;56.16
64652;HTU21D;51062;45.120;37.660;2023-10-31T10:22:40;21.22;56.14
64652;HTU21D;51062;45.120;37.660;2023-10-31T10:25:08;21.27;56.01
64652;HTU21D;51062;45.120;37.660;2023-10-31T10:27:35;21.30;55.82
64652;HTU21D;51062;45.120;37.660;2023-10-31T10:30:02;21.34;55.75
64652;HTU21D;51062;45.120;37.660;2023-10-31T10:32:29;21.37;55.73
64652;HTU21D;51062;45.120;37.660;2023-10-31T10:34:55;21.40;55.71
64652;HTU21D;51062;45.120;37.660;2023-10-31T10:37:22;21.44;55.71
64652;HTU21D;51062;45.120;37.660;2023-10-31T10:39:51;21.48;55.68
64652;HTU21D;51062;45.120;37.660;2023-10-31T10:42:33;21.53;55.56
64652;HTU21D;51062;45.120;37.660;2023-10-31T10:45:02;21.58;55.45
64652;HTU21D;51062;45.120;37.660;2023-10-31T10:47:31;21.62;55.31
64652;HTU21D;51062;45.120;37.660;2023-10-31T10:49:59;21.64;55.32
64652;HTU21D;51062;45.120;37.660;2023-10-31T10:52:41;21.68;55.28
64652;HTU21D;51062;45.120;37.660;2023-10-31T10:55:23;21.73;55.20
64652;HTU21D;51062;45.120;37.660;2023-10-31T10:58:03;21.77;55.03
64652;HTU21D;51062;45.120;37.660;2023-10-31T11:00:31;21.80;55.00
64652;HTU21D;51062;45.120;37.660;2023-10-31T11:02:57;21.82;54.95
64652;HTU21D;51062;45.120;37.660;2023-10-31T11:05:24;21.81;55.06
64652;HTU21D;51062;45.120;37.660;2023-10-31T11:07:52;21.82;54.90
64652;HTU21D;51062;45.120;37.660;2023-10-31T11:10:18;21.84;54.96
64652;HTU21D;51062;45.120;37.660;2023-10-31T11:12:45;21.84;54.84
64652;HTU21D;51062;45.120;37.660;2023-10-31T11:15:14;21.88;54.76
64652;HTU21D;51062;45.120;37.660;2023-10-31T11:17:43;21.89;54.75
64652;HTU21D;51062;45.120;37.660;2023-10-31T11:20:12;21.89;54.81
64652;HTU21D;51062;45.120;37.660;2023-10-31T11:22:43;21.90;54.63
64652;HTU21D;51062;45.120;37.660;2023-10-31T11:25:18;21.92;54.55
64652;HTU21D;51062;45.120;37.660;2023-10-31T11:27:52;21.94;54.22
64652;HTU21D;51062;45.120;37.660;2023-10-31T11:32:53;21.97;54.05
64652;HTU21D;51062;45.120;37.660;2023-10-31T11:35:21;21.96;54.06
64652;HTU21D;51062;45.120;37.660;2023-10-31T11:37:48;21.97;53.94
64652;HTU21D;51062;45.120;37.660;2023-10-31T11:40:24;21.99;53.97
64652;HTU21D;51062;45.120;37.660;2023-10-31T11:42:57;21.97;53.94
64652;HTU21D;51062;45.120;37.660;2023-10-31T11:45:27;22.01;53.85
64652;HTU21D;51062;45.120;37.660;2023-10-31T11:47:54;22.02;53.91
64652;HTU21D;51062;45.120;37.660;2023-10-31T11:50:21;22.05;53.65
64652;HTU21D;51062;45.120;37.660;2023-10-31T11:53:07;22.09;53.52
64652;HTU21D;51062;45.120;37.660;2023-10-31T11:55:36;22.10;53.49
64652;HTU21D;51062;45.120;37.660;2023-10-31T11:58:18;22.08;53.48
64652;HTU21D;51062;45.120;37.660;2023-10-31T12:00:45;22.09;53.47
64652;HTU21D;51062;45.120;37.660;2023-10-31T12:03:11;22.10;53.46
64652;HTU21D;51062;45.120;37.660;2023-10-31T12:05:38;22.10;53.50
64652;HTU21D;51062;45.120;37.660;2023-10-31T12:08:04;22.10;53.36
64652;HTU21D;51062;45.120;37.660;2023-10-31T12:10:30;22.09;53.41
64652;HTU21D;51062;45.120;37.660;2023-10-31T12:12:57;22.11;53.30
64652;HTU21D;51062;45.120;37.660;2023-10-31T12:15:25;22.12;53.30
64652;HTU21D;51062;45.120;37.660;2023-10-31T12:17:51;22.12;53.25
64652;HTU21D;51062;45.120;37.660;2023-10-31T12:20:17;22.10;53.23
64652;HTU21D;51062;45.120;37.660;2023-10-31T12:22:43;22.10;53.24
64652;HTU21D;51062;45.120;37.660;2023-10-31T12:25:10;22.09;53.18
64652;HTU21D;51062;45.120;37.660;2023-10-31T12:27:47;22.08;53.16
64652;HTU21D;51062;45.120;37.660;2023-10-31T12:30:17;22.10;53.11
64652;HTU21D;51062;45.120;37.660;2023-10-31T12:32:44;22.09;53.07
64652;HTU21D;51062;45.120;37.660;2023-10-31T12:35:12;22.08;53.02
64652;HTU21D;51062;45.120;37.660;2023-10-31T12:37:51;22.05;53.02
64652;HTU21D;51062;45.120;37.660;2023-10-31T12:40:21;22.03;53.06
64652;HTU21D;51062;45.120;37.660;2023-10-31T12:42:48;21.98;53.12
64652;HTU21D;51062;45.120;37.660;2023-10-31T12:45:16;21.97;53.10
64652;HTU21D;51062;45.120;37.660;2023-10-31T12:47:43;21.95;53.14
64652;HTU21D;51062;45.120;37.660;2023-10-31T12:50:14;21.94;53.14
64652;HTU21D;51062;45.120;37.660;2023-10-31T12:52:51;21.90;53.16
64652;HTU21D;51062;45.120;37.660;2023-10-31T12:55:22;21.87;53.14
64652;HTU21D;51062;45.120;37.660;2023-10-31T12:57:49;21.87;53.18
64652;HTU21D;51062;45.120;37.660;2023-10-31T13:00:18;21.85;53.13
64652;HTU21D;51062;45.120;37.660;2023-10-31T13:03:00;21.81;53.08
64652;HTU21D;51062;45.120;37.660;2023-10-31T13:05:27;21.80;53.13
64652;HTU21D;51062;45.120;37.660;2023-10-31T13:07:54;21.75;53.22
64652;HTU21D;51062;45.120;37.660;2023-10-31T13:10:24;21.69;53.25
64652;HTU21D;51062;45.120;37.660;2023-10-31T13:12:51;21.66;53.33
64652;HTU21D;51062;45.120;37.660;2023-10-31T13:15:20;21.61;53.38
64652;HTU21D;51062;45.120;37.660;2023-10-31T13:17:51;21.54;53.46
64652;HTU21D;51062;45.120;37.660;2023-10-31T13:20:18;21.48;53.56
64652;HTU21D;51062;45.120;37.660;2023-10-31T13:22:45;21.40;53.65
64652;HTU21D;51062;45.120;37.660;2023-10-31T13:25:13;21.33;53.73
64652;HTU21D;51062;45.120;37.660;2023-10-31T13:27:40;21.25;53.81
64652;HTU21D;51062;45.120;37.660;2023-10-31T13:30:12;21.17;53.90
64652;HTU21D;51062;45.120;37.660;2023-10-31T13:32:43;21.09;54.01
64652;HTU21D;51062;45.120;37.660;2023-10-31T13:35:09;21.03;54.09
64652;HTU21D;51062;45.120;37.660;2023-10-31T13:37:36;20.98;54.16
64652;HTU21D;51062;45.120;37.660;2023-10-31T13:40:03;20.90;54.24
64652;HTU21D;51062;45.120;37.660;2023-10-31T13:42:29;20.81;54.30
64652;HTU21D;51062;45.120;37.660;2023-10-31T13:44:55;20.73;54.38
64652;HTU21D;51062;45.120;37.660;2023-10-31T13:47:22;20.62;54.49
64652;HTU21D;51062;45.120;37.660;2023-10-31T13:49:48;20.50;54.61
64652;HTU21D;51062;45.120;37.660;2023-10-31T13:52:14;20.37;54.77
64652;HTU21D;51062;45.120;37.660;2023-10-31T13:54:41;20.26;54.87
64652;HTU21D;51062;45.120;37.660;2023-10-31T13:57:07;20.11;55.07
64652;HTU21D;51062;45.120;37.660;2023-10-31T13:59:33;19.98;55.26
64652;HTU21D;51062;45.120;37.660;2023-10-31T14:02:00;19.86;55.42
64652;HTU21D;51062;45.120;37.660;2023-10-31T14:04:26;19.73;55.58
64652;HTU21D;51062;45.120;37.660;2023-10-31T14:06:54;19.60;55.73
64652;HTU21D;51062;45.120;37.660;2023-10-31T14:09:20;19.47;55.90
64652;HTU21D;51062;45.120;37.660;2023-10-31T14:11:46;19.37;56.04
64652;HTU21D;51062;45.120;37.660;2023-10-31T14:14:13;19.25;56.21
64652;HTU21D;51062;45.120;37.660;2023-10-31T14:16:40;19.14;56.36
64652;HTU21D;51062;45.120;37.660;2023-10-31T14:19:06;19.02;56.45
64652;HTU21D;51062;45.120;37.660;2023-10-31T14:21:36;18.92;56.61
64652;HTU21D;51062;45.120;37.660;2023-10-31T14:24:03;18.82;56.74
64652;HTU21D;51062;45.120;37.660;2023-10-31T14:26:30;18.73;56.84
64652;HTU21D;51062;45.120;37.660;2023-10-31T14:28:58;18.63;56.98
64652;HTU21D;51062;45.120;37.660;2023-10-31T14:31:25;18.52;57.10
64652;HTU21D;51062;45.120;37.660;2023-10-31T14:33:51;18.40;57.22
64652;HTU21D;51062;45.120;37.660;2023-10-31T14:36:18;18.27;57.34
64652;HTU21D;51062;45.120;37.660;2023-10-31T14:38:44;18.14;57.48
64652;HTU21D;51062;45.120;37.660;2023-10-31T14:41:10;18.00;57.64
64652;HTU21D;51062;45.120;37.660;2023-10-31T14:43:36;17.91;57.80
64652;HTU21D;51062;45.120;37.660;2023-10-31T14:46:03;17.81;57.94
64652;HTU21D;51062;45.120;37.660;2023-10-31T14:48:30;17.69;58.06
64652;HTU21D;51062;45.120;37.660;2023-10-31T14:50:56;17.61;58.17
64652;HTU21D;51062;45.120;37.660;2023-10-31T14:53:25;17.51;58.30
64652;HTU21D;51062;45.120;37.660;2023-10-31T14:55:51;17.41;58.38
64652;HTU21D;51062;45.120;37.660;2023-10-31T14:58:17;17.31;58.50
64652;HTU21D;51062;45.120;37.660;2023-10-31T15:00:43;17.23;58.64
64652;HTU21D;51062;45.120;37.660;2023-10-31T15:03:09;17.14;58.72
64652;HTU21D;51062;45.120;37.660;2023-10-31T15:05:35;17.05;58.81
64652;HTU21D;51062;45.120;37.660;2023-10-31T15:08:01;16.98;58.96